AirNav   Textron
 
 1157 users online  

VA82 Mount Vernon Hospital Heliport
Alexandria, Virginia, USA

GOING TO ALEXANDRIA?


FAA INFORMATION EFFECTIVE 20 JULY 2017

Location

FAA Identifier: VA82
Lat/Long: 38-44-25.2800N / 077-04-34.4300W
38-44.421333N / 077-04.573833W
38.7403556 / -77.0762306
(estimated)
Elevation: 38 ft. / 12 m (estimated)
Variation: 09W (1985)
From city: 4 miles S of ALEXANDRIA, VA
Time zone: UTC -4 (UTC -5 during Standard Time)
Zip code: 22306

Heliport Operations

Heliport use: Private use, MEDICAL USE.
Activation date: 03/1990
Control tower: no
ARTCC: WASHINGTON CENTER
FSS: LEESBURG FLIGHT SERVICE STATION
Attendance: MON-FRI 24 HOURS/DAY
Wind indicator: yes
Segmented circle: no

Heliport Communications

WX ASOS at DCA (7 nm N): 132.65 (703-412-8140)
WX AWOS-3 at CGS (16 nm NE): 121.225 (301-864-5497)

Nearby radio navigation aids

VOR radial/distance  VOR name  Freq  Var
DCAr204/7.4WASHINGTON VOR/DME111.0009W
ADWr258/10.6ANDREWS VORTAC113.1010W
OTTr288/15.7NOTTINGHAM VORTAC113.7010W
AMLr131/21.7ARMEL VOR/DME113.5008W
BRVr037/27.5BROOKE VORTAC114.5009W
BALr228/32.3BALTIMORE VORTAC115.1011W
CSNr087/37.4CASANOVA VORTAC116.3006W

 
NDB name  Hdg/Dist  Freq  Var  ID
OXONN247/2.833211WDCA -.. -.-. .-
DAVEE028/5.022309WDAA -.. .- .-
GEORGETOWN178/11.632309WGTN --. - -.
SHANNON042/33.423710WEZF . --.. ..-.
ELLICOTT214/35.737111WFND ..-. -. -..
GOODWIN LAKE118/37.522708WGDX --. -.. -..-
INSTITUTE221/39.040408WIUB .. ..- -...

Heliport Services

Runway Information

Helipad H1

Dimensions: 75 x 75 ft. / 23 x 23 m
Surface: concrete
Latitude: 38-44.421333N
Longitude: 077-04.573833W
Elevation: 38.0 ft.
Traffic pattern: leftleft

Heliport Ownership and Management from official FAA records

Ownership: Privately-owned
Owner: MT VERNON HOSPITAL
2501 PARKERS LANE
ALEXANDRIA, VA 22306
Phone 703-664-7213
Manager: LARRY RAMSDELL
2501 PARKER'S LANE
ALEXANDRIA, VA 22306
Phone 703-664-7889

Instrument Procedures

There are no published instrument procedures at VA82.

Some nearby airports with instrument procedures:

KDAA - Davison Army Airfield (5 nm W)
KVKX - Potomac Airfield (6 nm E)
W32 - Washington Executive Airport/Hyde Field (7 nm E)
KDCA - Ronald Reagan Washington National Airport (7 nm N)
2W5 - Maryland Airport (9 nm S)
KADW - Joint Base Andrews (11 nm NE)
KCGS - College Park Airport (16 nm NE)
KNYG - Quantico Marine Corps Airfield / Turner Field (18 nm SW)
W00 - Freeway Airport (19 nm NE)
 
Loc | Ops | Rwys | IFR | FBO | Links
Com | Nav | Svcs | Stats | Notes


 
Area around VA82 (Mount Vernon Hospital Heliport)
 
Road maps at: MapQuest Bing Google
 
Aerial photo
No photo
 
Sectional chart

 
Airport distance calculator
Flying to Mount Vernon Hospital Heliport? Find the distance to fly.

From to VA82

Sunrise and sunset
Times for 26-Jul-2017
 Local
(UTC-4)
 Zulu
(UTC)
Morning civil twilight05:3509:35
Sunrise06:0510:05
Sunset20:2400:24
Evening civil twilight20:5400:54

Current date and time
Zulu (UTC)  26-Jul-2017 22:27:22
Local (UTC-4)  26-Jul-2017 18:27:22
 
METAR
KDAA 
4nm W 
262158Z AUTO 12003KT 10SM CLR 29/16 A3010 RMK AO2 SLP196 T02880161
KVKX 
6nm E 
SuperAWOS
262155Z AUTO 00000KT 10SM 28/18 A3010
KDCA 
7nm N 
262152Z 17007KT 10SM SCT065 SCT250 29/17 A3010 RMK AO2 SLP192 T02940167
KADW 
11nm NE 
262158Z AUTO 11006KT 10SM CLR 27/19 A3010 RMK AO2 SLP198 T02730188
KCGS 
16nm NE 
262208Z AUTO 10007KT 10SM SCT070 28/19 A3009 RMK AO1 T02760192
KNYG 
17nm SW 
262156Z 00000KT 10SM SCT060 SCT200 29/18 A3010 RMK AO2 SLP193 T02890183
TAF
KDAA 
4nm W 
261700Z 2617/2723 VRB06KT 9999 BKN040 QNH3018INS WND 20009KT AFT 2718 TEMPO 2720/2723 23012G18KT 6000 -TSRA BKN030CB TX29/2717Z TN20/2709Z
KDCA 
7nm N 
261733Z 2618/2718 15005KT P6SM SCT050 FM261900 15005KT P6SM BKN050 FM270000 13006KT P6SM SCT250 FM270700 18005KT P6SM SCT025 BKN090 FM271000 19005KT P6SM SCT015 BKN025 FM271400 20007KT P6SM BKN040
KADW 
11nm NE 
261700Z 2617/2723 VRB06KT 9999 SCT040 QNH3018INS WND 20009KT AFT 2718 TEMPO 2720/2723 23012G18KT 6000 -TSRA BKN030CB TX29/2717Z TN20/2709Z
KNYG 
17nm SW 
2615/2715 VRB06KT 9999 SCT030 BKN055 BKN250 QNH3009INS FM270600 19009KT 9999 SCT030 BKN055 522809 523704 QNH2997INS T29/2620Z T21/2710Z
NOTAMs
Click for the latest NOTAMs
NOTAMs are issued by the DoD/FAA and will open in a separate window not controlled by AirNav.

 

 
 

Would you like to see your business listed on this page?

 If your business provides an interesting product or service to pilots, flight crews, aircraft, or users of the Mount Vernon Hospital Heliport, you should consider listing it here.  To start the listing process, click on the button below
 
Add a business
 

Other Pages about Mount Vernon Hospital Heliport

Update a link
 
Copyright © AirNav, LLC. All rights reserved. Privacy Policy  Contact